sensor_id;sensor_type;location;lat;lon;timestamp;pressure;altitude;pressure_sealevel;temperature;humidity
21900;BME280;11114;50.658;12.704;2022-11-14T00:02:31;96283.63;;;7.68;73.45
21900;BME280;11114;50.658;12.704;2022-11-14T00:05:17;96279.00;;;7.71;73.40
21900;BME280;11114;50.658;12.704;2022-11-14T00:08:03;96282.41;;;7.72;73.36
21900;BME280;11114;50.658;12.704;2022-11-14T00:10:50;96281.03;;;7.68;73.88
21900;BME280;11114;50.658;12.704;2022-11-14T00:13:36;96277.91;;;7.74;73.33
21900;BME280;11114;50.658;12.704;2022-11-14T00:16:21;96280.22;;;7.67;73.78
21900;BME280;11114;50.658;12.704;2022-11-14T00:19:06;96287.88;;;7.69;73.22
21900;BME280;11114;50.658;12.704;2022-11-14T00:21:51;96281.59;;;7.62;73.66
21900;BME280;11114;50.658;12.704;2022-11-14T00:24:37;96270.66;;;7.58;74.03
21900;BME280;11114;50.658;12.704;2022-11-14T00:27:22;96280.91;;;7.60;73.77
21900;BME280;11114;50.658;12.704;2022-11-14T00:30:08;96283.78;;;7.57;73.88
21900;BME280;11114;50.658;12.704;2022-11-14T00:32:54;96285.69;;;7.64;73.52
21900;BME280;11114;50.658;12.704;2022-11-14T00:35:39;96270.66;;;7.58;73.54
21900;BME280;11114;50.658;12.704;2022-11-14T00:38:24;96274.75;;;7.61;73.28
21900;BME280;11114;50.658;12.704;2022-11-14T00:41:10;96270.09;;;7.64;73.53
21900;BME280;11114;50.658;12.704;2022-11-14T00:43:55;96266.16;;;7.60;73.41
21900;BME280;11114;50.658;12.704;2022-11-14T00:46:40;96269.28;;;7.64;73.18
21900;BME280;11114;50.658;12.704;2022-11-14T00:49:26;96261.63;;;7.62;73.26
21900;BME280;11114;50.658;12.704;2022-11-14T00:52:11;96263.53;;;7.60;73.22
21900;BME280;11114;50.658;12.704;2022-11-14T00:54:56;96265.59;;;7.57;73.65
21900;BME280;11114;50.658;12.704;2022-11-14T00:57:42;96267.09;;;7.59;73.36
21900;BME280;11114;50.658;12.704;2022-11-14T01:00:27;96263.81;;;7.67;73.09
21900;BME280;11114;50.658;12.704;2022-11-14T01:03:13;96262.44;;;7.63;72.95
21900;BME280;11114;50.658;12.704;2022-11-14T01:06:03;96256.28;;;7.64;73.24
21900;BME280;11114;50.658;12.704;2022-11-14T01:08:50;96252.59;;;7.66;72.78
21900;BME280;11114;50.658;12.704;2022-11-14T01:11:36;96250.94;;;7.65;72.95
21900;BME280;11114;50.658;12.704;2022-11-14T01:14:22;96260.94;;;7.60;72.93
21900;BME280;11114;50.658;12.704;2022-11-14T01:17:07;96245.63;;;7.57;73.32
21900;BME280;11114;50.658;12.704;2022-11-14T01:19:53;96245.94;;;7.54;73.19
21900;BME280;11114;50.658;12.704;2022-11-14T01:22:39;96234.84;;;7.52;73.05
21900;BME280;11114;50.658;12.704;2022-11-14T01:25:24;96224.47;;;7.52;73.08
21900;BME280;11114;50.658;12.704;2022-11-14T01:28:12;96231.28;;;7.44;73.44
21900;BME280;11114;50.658;12.704;2022-11-14T01:31:12;96232.13;;;7.44;73.69
21900;BME280;11114;50.658;12.704;2022-11-14T01:33:59;96212.69;;;7.48;73.64
21900;BME280;11114;50.658;12.704;2022-11-14T01:36:44;96213.22;;;7.52;73.06
21900;BME280;11114;50.658;12.704;2022-11-14T01:39:29;96211.88;;;7.57;73.01
21900;BME280;11114;50.658;12.704;2022-11-14T01:42:15;96202.31;;;7.48;72.99
21900;BME280;11114;50.658;12.704;2022-11-14T01:48:36;96198.06;;;7.47;73.52
21900;BME280;11114;50.658;12.704;2022-11-14T01:51:23;96195.88;;;7.52;73.04
21900;BME280;11114;50.658;12.704;2022-11-14T01:54:21;96206.38;;;7.51;73.11
21900;BME280;11114;50.658;12.704;2022-11-14T01:57:08;96198.47;;;7.52;73.25
21900;BME280;11114;50.658;12.704;2022-11-14T01:59:58;96192.31;;;7.44;73.74
21900;BME280;11114;50.658;12.704;2022-11-14T02:02:45;96185.63;;;7.51;73.10
21900;BME280;11114;50.658;12.704;2022-11-14T02:05:31;96181.94;;;7.53;73.04
21900;BME280;11114;50.658;12.704;2022-11-14T02:08:17;96189.03;;;7.61;73.10
21900;BME280;11114;50.658;12.704;2022-11-14T02:11:03;96183.72;;;7.62;72.92
21900;BME280;11114;50.658;12.704;2022-11-14T02:13:48;96188.91;;;7.62;73.05
21900;BME280;11114;50.658;12.704;2022-11-14T02:16:34;96192.16;;;7.64;72.85
21900;BME280;11114;50.658;12.704;2022-11-14T02:19:20;96179.06;;;7.66;72.81
21900;BME280;11114;50.658;12.704;2022-11-14T02:22:05;96172.47;;;7.71;72.28
21900;BME280;11114;50.658;12.704;2022-11-14T02:24:50;96170.25;;;7.76;72.03
21900;BME280;11114;50.658;12.704;2022-11-14T02:27:38;96170.00;;;7.79;72.13
21900;BME280;11114;50.658;12.704;2022-11-14T02:30:23;96170.78;;;7.89;71.51
21900;BME280;11114;50.658;12.704;2022-11-14T02:33:09;96160.66;;;7.86;71.47
21900;BME280;11114;50.658;12.704;2022-11-14T02:35:55;96166.81;;;7.85;71.49
21900;BME280;11114;50.658;12.704;2022-11-14T02:38:41;96171.91;;;7.77;72.07
21900;BME280;11114;50.658;12.704;2022-11-14T02:41:26;96177.53;;;7.73;71.96
21900;BME280;11114;50.658;12.704;2022-11-14T02:44:12;96186.16;;;7.64;72.37
21900;BME280;11114;50.658;12.704;2022-11-14T02:46:57;96178.78;;;7.59;72.86
21900;BME280;11114;50.658;12.704;2022-11-14T02:49:42;96176.88;;;7.52;73.25
21900;BME280;11114;50.658;12.704;2022-11-14T02:52:28;96177.28;;;7.47;73.65
21900;BME280;11114;50.658;12.704;2022-11-14T02:55:13;96161.69;;;7.47;73.47
21900;BME280;11114;50.658;12.704;2022-11-14T02:57:59;96162.13;;;7.43;73.90
21900;BME280;11114;50.658;12.704;2022-11-14T03:00:44;96161.03;;;7.45;74.19
21900;BME280;11114;50.658;12.704;2022-11-14T03:03:50;96152.44;;;7.35;74.62
21900;BME280;11114;50.658;12.704;2022-11-14T03:06:36;96156.41;;;7.30;74.57
21900;BME280;11114;50.658;12.704;2022-11-14T03:09:21;96159.41;;;7.26;74.89
21900;BME280;11114;50.658;12.704;2022-11-14T03:12:06;96170.59;;;7.26;74.68
21900;BME280;11114;50.658;12.704;2022-11-14T03:14:52;96160.75;;;7.30;74.98
21900;BME280;11114;50.658;12.704;2022-11-14T03:17:37;96161.59;;;7.30;74.97
21900;BME280;11114;50.658;12.704;2022-11-14T03:20:22;96169.38;;;7.30;74.94
21900;BME280;11114;50.658;12.704;2022-11-14T03:23:08;96175.28;;;7.32;74.92
21900;BME280;11114;50.658;12.704;2022-11-14T03:25:53;96165.44;;;7.35;74.91
21900;BME280;11114;50.658;12.704;2022-11-14T03:28:39;96152.56;;;7.34;74.87
21900;BME280;11114;50.658;12.704;2022-11-14T03:31:24;96159.69;;;7.32;74.87
21900;BME280;11114;50.658;12.704;2022-11-14T03:34:11;96162.69;;;7.37;74.73
21900;BME280;11114;50.658;12.704;2022-11-14T03:36:56;96158.19;;;7.39;74.89
21900;BME280;11114;50.658;12.704;2022-11-14T03:39:41;96149.56;;;7.38;74.83
21900;BME280;11114;50.658;12.704;2022-11-14T03:42:27;96141.75;;;7.38;74.99
21900;BME280;11114;50.658;12.704;2022-11-14T03:45:12;96139.47;;;7.35;75.06
21900;BME280;11114;50.658;12.704;2022-11-14T03:47:57;96136.19;;;7.33;75.06
21900;BME280;11114;50.658;12.704;2022-11-14T03:50:43;96140.41;;;7.34;75.18
21900;BME280;11114;50.658;12.704;2022-11-14T03:53:28;96134.53;;;7.32;75.27
21900;BME280;11114;50.658;12.704;2022-11-14T03:56:13;96148.31;;;7.33;75.65
21900;BME280;11114;50.658;12.704;2022-11-14T03:58:59;96138.09;;;7.32;75.83
21900;BME280;11114;50.658;12.704;2022-11-14T04:01:44;96127.16;;;7.28;75.70
21900;BME280;11114;50.658;12.704;2022-11-14T04:04:29;96130.97;;;7.24;75.97
21900;BME280;11114;50.658;12.704;2022-11-14T04:07:15;96132.78;;;7.24;76.26
21900;BME280;11114;50.658;12.704;2022-11-14T04:10:00;96119.41;;;7.19;76.37
21900;BME280;11114;50.658;12.704;2022-11-14T04:12:49;96108.44;;;7.15;76.39
21900;BME280;11114;50.658;12.704;2022-11-14T04:15:35;96116.53;;;7.12;76.94
21900;BME280;11114;50.658;12.704;2022-11-14T04:18:20;96112.84;;;7.05;76.91
21900;BME280;11114;50.658;12.704;2022-11-14T04:21:05;96114.50;;;7.06;77.40
21900;BME280;11114;50.658;12.704;2022-11-14T04:23:51;96107.78;;;7.04;77.33
21900;BME280;11114;50.658;12.704;2022-11-14T04:26:36;96110.13;;;6.97;77.53
21900;BME280;11114;50.658;12.704;2022-11-14T04:29:22;96116.81;;;7.00;77.50
21900;BME280;11114;50.658;12.704;2022-11-14T04:32:07;96110.94;;;6.98;77.34
21900;BME280;11114;50.658;12.704;2022-11-14T04:34:52;96113.25;;;7.01;77.59
21900;BME280;11114;50.658;12.704;2022-11-14T04:37:38;96108.06;;;7.01;77.53
21900;BME280;11114;50.658;12.704;2022-11-14T04:40:23;96101.78;;;7.03;77.24
21900;BME280;11114;50.658;12.704;2022-11-14T04:43:08;96101.94;;;7.02;77.25
21900;BME280;11114;50.658;12.704;2022-11-14T04:45:54;96091.56;;;7.02;77.42
21900;BME280;11114;50.658;12.704;2022-11-14T04:48:39;96102.59;;;7.04;77.43
21900;BME280;11114;50.658;12.704;2022-11-14T04:51:24;96113.66;;;7.06;77.45
21900;BME280;11114;50.658;12.704;2022-11-14T04:54:10;96119.00;;;7.04;77.37
21900;BME280;11114;50.658;12.704;2022-11-14T04:56:55;96121.19;;;7.09;77.09
21900;BME280;11114;50.658;12.704;2022-11-14T05:03:57;96108.19;;;6.99;77.80
21900;BME280;11114;50.658;12.704;2022-11-14T05:06:48;96106.00;;;6.95;77.59
21900;BME280;11114;50.658;12.704;2022-11-14T05:10:18;96110.13;;;6.88;78.04
21900;BME280;11114;50.658;12.704;2022-11-14T05:13:40;96088.41;;;6.89;78.30
21900;BME280;11114;50.658;12.704;2022-11-14T05:16:45;96099.88;;;6.86;78.01
21900;BME280;11114;50.658;12.704;2022-11-14T05:19:31;96094.00;;;6.84;78.21
21900;BME280;11114;50.658;12.704;2022-11-14T05:22:28;96096.59;;;6.84;78.70
21900;BME280;11114;50.658;12.704;2022-11-14T05:25:14;96094.00;;;6.84;78.27
21900;BME280;11114;50.658;12.704;2022-11-14T05:28:00;96104.22;;;6.86;78.42
21900;BME280;11114;50.658;12.704;2022-11-14T05:35:13;96111.06;;;6.87;78.44
21900;BME280;11114;50.658;12.704;2022-11-14T05:38:04;96100.97;;;6.84;78.53
21900;BME280;11114;50.658;12.704;2022-11-14T05:40:49;96105.06;;;6.86;78.46
21900;BME280;11114;50.658;12.704;2022-11-14T05:50:46;96112.44;;;6.81;78.86
21900;BME280;11114;50.658;12.704;2022-11-14T05:53:32;96125.53;;;6.80;78.71
21900;BME280;11114;50.658;12.704;2022-11-14T05:56:17;96130.19;;;6.76;79.15
21900;BME280;11114;50.658;12.704;2022-11-14T05:59:03;96130.34;;;6.75;79.19
21900;BME280;11114;50.658;12.704;2022-11-14T06:01:48;96134.84;;;6.73;78.99
21900;BME280;11114;50.658;12.704;2022-11-14T06:04:33;96135.94;;;6.70;79.22
21900;BME280;11114;50.658;12.704;2022-11-14T06:07:19;96138.63;;;6.69;79.48
21900;BME280;11114;50.658;12.704;2022-11-14T06:10:05;96141.22;;;6.69;79.58
21900;BME280;11114;50.658;12.704;2022-11-14T06:12:51;96136.19;;;6.67;79.40
21900;BME280;11114;50.658;12.704;2022-11-14T06:15:36;96148.31;;;6.67;79.25
21900;BME280;11114;50.658;12.704;2022-11-14T06:18:21;96152.56;;;6.68;79.31
21900;BME280;11114;50.658;12.704;2022-11-14T06:21:16;96159.69;;;6.66;79.81
21900;BME280;11114;50.658;12.704;2022-11-14T06:24:01;96145.88;;;6.65;79.45
21900;BME280;11114;50.658;12.704;2022-11-14T06:26:47;96153.25;;;6.60;79.48
21900;BME280;11114;50.658;12.704;2022-11-14T06:29:32;96150.50;;;6.62;79.80
21900;BME280;11114;50.658;12.704;2022-11-14T06:32:19;96143.69;;;6.61;79.88
21900;BME280;11114;50.658;12.704;2022-11-14T06:35:05;96146.28;;;6.61;79.68
21900;BME280;11114;50.658;12.704;2022-11-14T06:37:52;96149.56;;;6.63;80.01
21900;BME280;11114;50.658;12.704;2022-11-14T06:40:38;96145.19;;;6.63;79.98
21900;BME280;11114;50.658;12.704;2022-11-14T06:43:24;96144.38;;;6.63;79.81
21900;BME280;11114;50.658;12.704;2022-11-14T06:46:11;96155.69;;;6.62;79.67
21900;BME280;11114;50.658;12.704;2022-11-14T06:48:57;96153.34;;;6.59;80.11
21900;BME280;11114;50.658;12.704;2022-11-14T06:51:42;96165.66;;;6.57;80.16
21900;BME280;11114;50.658;12.704;2022-11-14T06:54:27;96152.25;;;6.52;79.99
21900;BME280;11114;50.658;12.704;2022-11-14T06:57:13;96161.69;;;6.53;80.04
21900;BME280;11114;50.658;12.704;2022-11-14T06:59:58;96164.28;;;6.53;80.18
21900;BME280;11114;50.658;12.704;2022-11-14T07:02:45;96161.00;;;6.51;80.17
21900;BME280;11114;50.658;12.704;2022-11-14T07:05:31;96165.91;;;6.54;79.98
21900;BME280;11114;50.658;12.704;2022-11-14T07:08:16;96162.78;;;6.60;80.16
21900;BME280;11114;50.658;12.704;2022-11-14T07:11:11;96161.84;;;6.61;80.07
21900;BME280;11114;50.658;12.704;2022-11-14T07:14:01;96157.59;;;6.60;80.27
21900;BME280;11114;50.658;12.704;2022-11-14T07:16:48;96159.25;;;6.61;80.51
21900;BME280;11114;50.658;12.704;2022-11-14T07:19:33;96160.75;;;6.63;80.01
21900;BME280;11114;50.658;12.704;2022-11-14T07:22:19;96160.63;;;6.65;80.09
21900;BME280;11114;50.658;12.704;2022-11-14T07:25:05;96170.59;;;6.69;79.96
21900;BME280;11114;50.658;12.704;2022-11-14T07:27:51;96167.84;;;6.71;79.78
21900;BME280;11114;50.658;12.704;2022-11-14T07:30:36;96174.69;;;6.72;79.82
21900;BME280;11114;50.658;12.704;2022-11-14T07:33:21;96170.75;;;6.77;79.79
21900;BME280;11114;50.658;12.704;2022-11-14T07:36:08;96172.25;;;6.80;79.60
21900;BME280;11114;50.658;12.704;2022-11-14T07:38:53;96177.97;;;6.83;79.76
21900;BME280;11114;50.658;12.704;2022-11-14T07:41:39;96184.56;;;6.87;79.58
21900;BME280;11114;50.658;12.704;2022-11-14T07:44:25;96184.66;;;6.86;79.55
21900;BME280;11114;50.658;12.704;2022-11-14T07:47:10;96176.38;;;6.92;79.52
21900;BME280;11114;50.658;12.704;2022-11-14T07:49:56;96179.63;;;6.94;79.25
21900;BME280;11114;50.658;12.704;2022-11-14T07:52:41;96179.91;;;7.00;79.02
21900;BME280;11114;50.658;12.704;2022-11-14T07:55:27;96184.69;;;7.05;78.98
21900;BME280;11114;50.658;12.704;2022-11-14T07:58:12;96182.53;;;7.10;78.61
21900;BME280;11114;50.658;12.704;2022-11-14T08:01:01;96192.50;;;7.14;78.39
21900;BME280;11114;50.658;12.704;2022-11-14T08:03:47;96190.28;;;7.19;78.18
21900;BME280;11114;50.658;12.704;2022-11-14T08:06:32;96171.16;;;7.20;78.09
21900;BME280;11114;50.658;12.704;2022-11-14T08:09:18;96167.47;;;7.23;78.15
21900;BME280;11114;50.658;12.704;2022-11-14T08:12:03;96167.22;;;7.26;77.99
21900;BME280;11114;50.658;12.704;2022-11-14T08:14:49;96170.50;;;7.28;77.96
21900;BME280;11114;50.658;12.704;2022-11-14T08:17:34;96172.69;;;7.32;78.02
21900;BME280;11114;50.658;12.704;2022-11-14T08:20:20;96169.53;;;7.38;78.04
21900;BME280;11114;50.658;12.704;2022-11-14T08:23:06;96164.88;;;7.41;77.74
21900;BME280;11114;50.658;12.704;2022-11-14T08:25:51;96165.94;;;7.48;77.30
21900;BME280;11114;50.658;12.704;2022-11-14T08:28:37;96159.91;;;7.57;78.08
21900;BME280;11114;50.658;12.704;2022-11-14T08:31:23;96156.78;;;7.63;77.27
21900;BME280;11114;50.658;12.704;2022-11-14T08:34:09;96160.44;;;7.70;77.46
21900;BME280;11114;50.658;12.704;2022-11-14T08:36:54;96158.50;;;7.72;77.34
21900;BME280;11114;50.658;12.704;2022-11-14T08:39:41;96151.50;;;7.82;76.68
21900;BME280;11114;50.658;12.704;2022-11-14T08:42:27;96151.38;;;7.84;76.13
21900;BME280;11114;50.658;12.704;2022-11-14T08:45:13;96160.41;;;7.89;76.44
21900;BME280;11114;50.658;12.704;2022-11-14T08:47:58;96128.63;;;7.95;76.04
21900;BME280;11114;50.658;12.704;2022-11-14T08:50:44;96136.69;;;8.02;75.90
21900;BME280;11114;50.658;12.704;2022-11-14T08:53:29;96131.31;;;8.03;75.65
21900;BME280;11114;50.658;12.704;2022-11-14T08:56:15;96127.63;;;8.06;76.01
21900;BME280;11114;50.658;12.704;2022-11-14T08:59:03;96118.44;;;8.11;75.57
21900;BME280;11114;50.658;12.704;2022-11-14T09:01:49;96114.63;;;8.15;75.15
21900;BME280;11114;50.658;12.704;2022-11-14T09:04:35;96117.06;;;8.17;75.39
21900;BME280;11114;50.658;12.704;2022-11-14T09:07:21;96110.75;;;8.19;75.50
21900;BME280;11114;50.658;12.704;2022-11-14T09:10:07;96112.91;;;8.23;75.55
21900;BME280;11114;50.658;12.704;2022-11-14T09:12:56;96109.88;;;8.28;75.02
21900;BME280;11114;50.658;12.704;2022-11-14T09:15:43;96111.38;;;8.30;75.12
21900;BME280;11114;50.658;12.704;2022-11-14T09:18:29;96115.34;;;8.34;74.78
21900;BME280;11114;50.658;12.704;2022-11-14T09:21:15;96113.25;;;8.38;74.67
21900;BME280;11114;50.658;12.704;2022-11-14T09:24:00;96119.94;;;8.40;74.07
21900;BME280;11114;50.658;12.704;2022-11-14T09:26:46;96125.97;;;8.41;74.16
21900;BME280;11114;50.658;12.704;2022-11-14T09:29:40;96121.31;;;8.44;74.55
21900;BME280;11114;50.658;12.704;2022-11-14T09:32:25;96119.91;;;8.50;74.17
21900;BME280;11114;50.658;12.704;2022-11-14T09:35:11;96127.56;;;8.51;73.68
21900;BME280;11114;50.658;12.704;2022-11-14T09:38:07;96121.09;;;8.55;74.11
21900;BME280;11114;50.658;12.704;2022-11-14T09:47:13;96110.03;;;8.71;73.88
21900;BME280;11114;50.658;12.704;2022-11-14T09:50:26;96111.06;;;8.78;73.71
21900;BME280;11114;50.658;12.704;2022-11-14T09:53:27;96110.50;;;8.84;73.42
21900;BME280;11114;50.658;12.704;2022-11-14T09:56:19;96109.59;;;8.93;73.22
21900;BME280;11114;50.658;12.704;2022-11-14T09:59:13;96092.13;;;9.02;72.71
21900;BME280;11114;50.658;12.704;2022-11-14T10:11:23;96104.94;;;9.39;72.24
21900;BME280;11114;50.658;12.704;2022-11-14T10:17:36;96084.13;;;9.72;70.99
21900;BME280;11114;50.658;12.704;2022-11-14T10:23:30;96092.44;;;10.01;69.76
21900;BME280;11114;50.658;12.704;2022-11-14T10:26:25;96096.94;;;10.16;69.30
21900;BME280;11114;50.658;12.704;2022-11-14T10:35:18;96091.03;;;10.56;66.21
21900;BME280;11114;50.658;12.704;2022-11-14T10:40:59;96090.56;;;10.76;63.52
21900;BME280;11114;50.658;12.704;2022-11-14T10:43:48;96092.22;;;10.85;64.53
21900;BME280;11114;50.658;12.704;2022-11-14T10:46:42;96084.91;;;10.96;65.01
21900;BME280;11114;50.658;12.704;2022-11-14T10:49:31;96078.06;;;11.03;63.44
21900;BME280;11114;50.658;12.704;2022-11-14T10:52:23;96080.66;;;11.11;63.41
21900;BME280;11114;50.658;12.704;2022-11-14T10:55:16;96074.47;;;11.20;63.22
21900;BME280;11114;50.658;12.704;2022-11-14T10:58:09;96077.88;;;11.29;62.78
21900;BME280;11114;50.658;12.704;2022-11-14T11:04:32;96074.59;;;11.50;62.46
21900;BME280;11114;50.658;12.704;2022-11-14T11:07:20;96077.41;;;11.57;61.43
21900;BME280;11114;50.658;12.704;2022-11-14T11:11:07;96063.97;;;11.68;61.79
21900;BME280;11114;50.658;12.704;2022-11-14T11:14:18;96067.88;;;11.80;60.93
21900;BME280;11114;50.658;12.704;2022-11-14T11:17:22;96050.38;;;11.88;60.17
21900;BME280;11114;50.658;12.704;2022-11-14T11:20:38;96057.03;;;11.99;59.97
21900;BME280;11114;50.658;12.704;2022-11-14T11:23:26;96054.84;;;12.10;59.63
21900;BME280;11114;50.658;12.704;2022-11-14T11:26:38;96055.66;;;12.19;59.03
21900;BME280;11114;50.658;12.704;2022-11-14T11:29:23;96054.31;;;12.23;58.42
21900;BME280;11114;50.658;12.704;2022-11-14T11:32:09;96051.78;;;12.37;58.63
21900;BME280;11114;50.658;12.704;2022-11-14T11:34:56;96047.97;;;12.47;59.21
21900;BME280;11114;50.658;12.704;2022-11-14T11:37:58;96052.16;;;12.56;57.45
21900;BME280;11114;50.658;12.704;2022-11-14T11:40:53;96055.91;;;12.62;57.81
21900;BME280;11114;50.658;12.704;2022-11-14T11:43:44;96054.06;;;12.70;57.10
21900;BME280;11114;50.658;12.704;2022-11-14T11:55:17;96072.78;;;13.12;57.00
21900;BME280;11114;50.658;12.704;2022-11-14T11:58:16;96068.31;;;13.20;55.34
21900;BME280;11114;50.658;12.704;2022-11-14T12:01:07;96064.78;;;13.28;56.00
21900;BME280;11114;50.658;12.704;2022-11-14T12:03:53;96070.34;;;13.33;55.08
21900;BME280;11114;50.658;12.704;2022-11-14T12:07:07;96079.94;;;13.40;54.95
21900;BME280;11114;50.658;12.704;2022-11-14T12:09:54;96084.63;;;13.45;53.96
21900;BME280;11114;50.658;12.704;2022-11-14T12:13:26;96074.72;;;13.55;54.38
21900;BME280;11114;50.658;12.704;2022-11-14T12:29:10;96083.41;;;13.70;52.63
21900;BME280;11114;50.658;12.704;2022-11-14T12:32:11;96084.63;;;13.82;52.79
21900;BME280;11114;50.658;12.704;2022-11-14T12:35:02;96080.72;;;13.92;52.42
21900;BME280;11114;50.658;12.704;2022-11-14T12:37:51;96075.31;;;13.94;52.22
21900;BME280;11114;50.658;12.704;2022-11-14T12:40:48;96076.31;;;14.07;52.22
21900;BME280;11114;50.658;12.704;2022-11-14T12:43:37;96079.13;;;14.20;52.93
21900;BME280;11114;50.658;12.704;2022-11-14T12:46:24;96074.44;;;14.30;52.14
21900;BME280;11114;50.658;12.704;2022-11-14T12:52:44;96078.22;;;14.42;50.22
21900;BME280;11114;50.658;12.704;2022-11-14T13:01:30;96068.69;;;14.90;51.06
21900;BME280;11114;50.658;12.704;2022-11-14T13:10:37;96056.19;;;15.34;50.08
21900;BME280;11114;50.658;12.704;2022-11-14T13:13:23;96052.94;;;15.32;50.61
21900;BME280;11114;50.658;12.704;2022-11-14T13:16:33;96058.69;;;15.21;49.57
21900;BME280;11114;50.658;12.704;2022-11-14T13:19:44;96063.88;;;14.94;50.02
21900;BME280;11114;50.658;12.704;2022-11-14T13:22:49;96063.47;;;14.76;49.72
21900;BME280;11114;50.658;12.704;2022-11-14T13:25:34;96059.88;;;14.63;50.72
21900;BME280;11114;50.658;12.704;2022-11-14T13:28:42;96071.34;;;14.55;50.72
21900;BME280;11114;50.658;12.704;2022-11-14T13:52:47;96031.06;;;13.91;51.62
21900;BME280;11114;50.658;12.704;2022-11-14T14:08:43;96043.16;;;13.63;51.83
21900;BME280;11114;50.658;12.704;2022-11-14T14:27:14;96031.97;;;12.95;52.25
21900;BME280;11114;50.658;12.704;2022-11-14T14:35:53;96029.66;;;12.70;53.06
21900;BME280;11114;50.658;12.704;2022-11-14T14:38:38;96024.94;;;12.65;53.21
21900;BME280;11114;50.658;12.704;2022-11-14T14:41:24;96019.47;;;12.52;53.05
21900;BME280;11114;50.658;12.704;2022-11-14T14:44:20;96025.38;;;12.46;53.48
21900;BME280;11114;50.658;12.704;2022-11-14T14:47:33;96029.00;;;12.45;53.34
21900;BME280;11114;50.658;12.704;2022-11-14T14:50:23;96033.59;;;12.43;53.63
21900;BME280;11114;50.658;12.704;2022-11-14T14:53:29;96024.44;;;12.39;53.51
21900;BME280;11114;50.658;12.704;2022-11-14T14:56:20;96031.19;;;12.34;53.49
21900;BME280;11114;50.658;12.704;2022-11-14T14:59:17;96031.41;;;12.25;53.48
21900;BME280;11114;50.658;12.704;2022-11-14T15:02:12;96021.78;;;12.17;53.56
21900;BME280;11114;50.658;12.704;2022-11-14T15:05:00;96029.56;;;11.95;53.80
21900;BME280;11114;50.658;12.704;2022-11-14T15:07:46;96033.19;;;11.86;54.08
21900;BME280;11114;50.658;12.704;2022-11-14T15:10:33;96026.19;;;11.86;54.43
21900;BME280;11114;50.658;12.704;2022-11-14T15:13:19;96023.41;;;11.80;54.31
21900;BME280;11114;50.658;12.704;2022-11-14T15:16:05;96021.03;;;11.62;54.59
21900;BME280;11114;50.658;12.704;2022-11-14T15:18:53;96026.25;;;11.62;54.70
21900;BME280;11114;50.658;12.704;2022-11-14T15:21:39;96034.59;;;11.58;54.67
21900;BME280;11114;50.658;12.704;2022-11-14T15:24:25;96041.78;;;11.56;54.86
21900;BME280;11114;50.658;12.704;2022-11-14T15:27:18;96040.94;;;11.47;55.24
21900;BME280;11114;50.658;12.704;2022-11-14T15:30:06;96044.22;;;11.42;55.08
21900;BME280;11114;50.658;12.704;2022-11-14T15:32:54;96036.38;;;11.42;55.25
21900;BME280;11114;50.658;12.704;2022-11-14T15:35:40;96038.03;;;11.35;55.21
21900;BME280;11114;50.658;12.704;2022-11-14T15:38:25;96050.63;;;11.31;55.56
21900;BME280;11114;50.658;12.704;2022-11-14T15:41:32;96048.31;;;11.28;55.48
21900;BME280;11114;50.658;12.704;2022-11-14T15:44:31;96049.97;;;11.21;55.45
21900;BME280;11114;50.658;12.704;2022-11-14T15:47:33;96057.66;;;11.15;55.94
21900;BME280;11114;50.658;12.704;2022-11-14T15:50:27;96057.97;;;11.04;55.99
21900;BME280;11114;50.658;12.704;2022-11-14T15:53:23;96063.00;;;10.97;56.22
21900;BME280;11114;50.658;12.704;2022-11-14T15:56:10;96064.66;;;10.82;56.57
21900;BME280;11114;50.658;12.704;2022-11-14T15:58:57;96064.47;;;10.76;56.90
21900;BME280;11114;50.658;12.704;2022-11-14T16:01:43;96075.38;;;10.63;57.26
21900;BME280;11114;50.658;12.704;2022-11-14T16:04:32;96075.38;;;10.56;57.68
21900;BME280;11114;50.658;12.704;2022-11-14T16:07:20;96078.78;;;10.48;58.01
21900;BME280;11114;50.658;12.704;2022-11-14T16:10:17;96088.03;;;10.35;58.90
21900;BME280;11114;50.658;12.704;2022-11-14T16:13:03;96094.03;;;10.27;58.96
21900;BME280;11114;50.658;12.704;2022-11-14T16:15:49;96104.28;;;10.21;59.36
21900;BME280;11114;50.658;12.704;2022-11-14T16:18:35;96106.19;;;10.11;59.83
21900;BME280;11114;50.658;12.704;2022-11-14T16:21:20;96096.44;;;10.13;59.60
21900;BME280;11114;50.658;12.704;2022-11-14T16:24:12;96098.69;;;10.08;59.83
21900;BME280;11114;50.658;12.704;2022-11-14T16:26:59;96096.31;;;9.97;60.05
21900;BME280;11114;50.658;12.704;2022-11-14T16:29:44;96088.47;;;9.89;60.36
21900;BME280;11114;50.658;12.704;2022-11-14T16:32:29;96090.53;;;9.78;61.03
21900;BME280;11114;50.658;12.704;2022-11-14T16:35:20;96092.25;;;9.69;61.76
21900;BME280;11114;50.658;12.704;2022-11-14T16:38:08;96084.06;;;9.56;62.00
21900;BME280;11114;50.658;12.704;2022-11-14T16:40:56;96073.09;;;9.53;62.08
21900;BME280;11114;50.658;12.704;2022-11-14T16:43:44;96061.66;;;9.46;62.65
21900;BME280;11114;50.658;12.704;2022-11-14T16:46:30;96066.72;;;9.47;62.52
21900;BME280;11114;50.658;12.704;2022-11-14T16:49:16;96058.53;;;9.42;63.02
21900;BME280;11114;50.658;12.704;2022-11-14T16:52:03;96059.66;;;9.40;63.15
21900;BME280;11114;50.658;12.704;2022-11-14T16:54:52;96068.25;;;9.32;63.64
21900;BME280;11114;50.658;12.704;2022-11-14T16:57:38;96067.72;;;9.29;64.18
21900;BME280;11114;50.658;12.704;2022-11-14T17:00:24;96058.44;;;9.26;64.25
21900;BME280;11114;50.658;12.704;2022-11-14T17:03:09;96049.44;;;9.21;64.98
21900;BME280;11114;50.658;12.704;2022-11-14T17:05:55;96061.00;;;9.18;65.12
21900;BME280;11114;50.658;12.704;2022-11-14T17:08:40;96048.41;;;9.14;65.50
21900;BME280;11114;50.658;12.704;2022-11-14T17:11:26;96036.38;;;9.13;65.70
21900;BME280;11114;50.658;12.704;2022-11-14T17:14:12;96036.16;;;9.06;66.09
21900;BME280;11114;50.658;12.704;2022-11-14T17:16:58;96036.16;;;9.06;66.54
21900;BME280;11114;50.658;12.704;2022-11-14T17:19:46;96027.38;;;9.07;66.87